sensor_id;sensor_type;location;lat;lon;timestamp;P1;durP1;ratioP1;P2;durP2;ratioP2
77880;SDS011;67077;50.298;18.996;2023-09-19T00:00:47;19.70;;;14.30;;
77880;SDS011;67077;50.298;18.996;2023-09-19T00:03:39;27.80;;;14.00;;
77880;SDS011;67077;50.298;18.996;2023-09-19T00:06:09;19.10;;;13.90;;
77880;SDS011;67077;50.298;18.996;2023-09-19T00:08:37;19.80;;;13.50;;
77880;SDS011;67077;50.298;18.996;2023-09-19T00:11:05;17.50;;;13.20;;
77880;SDS011;67077;50.298;18.996;2023-09-19T00:13:33;17.30;;;13.90;;
77880;SDS011;67077;50.298;18.996;2023-09-19T00:16:12;21.60;;;14.30;;
77880;SDS011;67077;50.298;18.996;2023-09-19T00:18:40;18.40;;;13.50;;
77880;SDS011;67077;50.298;18.996;2023-09-19T00:21:08;19.70;;;13.10;;
77880;SDS011;67077;50.298;18.996;2023-09-19T00:23:38;20.60;;;14.30;;
77880;SDS011;67077;50.298;18.996;2023-09-19T00:26:08;22.00;;;15.10;;
77880;SDS011;67077;50.298;18.996;2023-09-19T00:28:36;20.70;;;13.50;;
77880;SDS011;67077;50.298;18.996;2023-09-19T00:31:04;17.30;;;13.20;;
77880;SDS011;67077;50.298;18.996;2023-09-19T00:33:32;20.80;;;13.80;;
77880;SDS011;67077;50.298;18.996;2023-09-19T00:36:01;19.30;;;13.60;;
77880;SDS011;67077;50.298;18.996;2023-09-19T00:38:33;18.20;;;13.70;;
77880;SDS011;67077;50.298;18.996;2023-09-19T00:41:00;18.20;;;13.20;;
77880;SDS011;67077;50.298;18.996;2023-09-19T00:43:28;19.30;;;14.00;;
77880;SDS011;67077;50.298;18.996;2023-09-19T00:45:56;20.10;;;13.80;;
77880;SDS011;67077;50.298;18.996;2023-09-19T00:48:25;20.30;;;14.10;;
77880;SDS011;67077;50.298;18.996;2023-09-19T00:50:57;20.30;;;13.60;;
77880;SDS011;67077;50.298;18.996;2023-09-19T00:53:29;19.90;;;13.50;;
77880;SDS011;67077;50.298;18.996;2023-09-19T00:55:58;19.10;;;14.00;;
77880;SDS011;67077;50.298;18.996;2023-09-19T00:58:26;23.20;;;14.30;;
77880;SDS011;67077;50.298;18.996;2023-09-19T01:00:59;18.00;;;13.70;;
77880;SDS011;67077;50.298;18.996;2023-09-19T01:03:28;17.90;;;13.10;;
77880;SDS011;67077;50.298;18.996;2023-09-19T01:05:56;18.80;;;13.70;;
77880;SDS011;67077;50.298;18.996;2023-09-19T01:08:24;19.30;;;14.20;;
77880;SDS011;67077;50.298;18.996;2023-09-19T01:10:59;19.60;;;14.00;;
77880;SDS011;67077;50.298;18.996;2023-09-19T01:16:32;20.70;;;14.00;;
77880;SDS011;67077;50.298;18.996;2023-09-19T01:22:00;18.30;;;13.20;;
77880;SDS011;67077;50.298;18.996;2023-09-19T01:29:52;17.90;;;13.50;;
77880;SDS011;67077;50.298;18.996;2023-09-19T01:32:21;18.90;;;12.80;;
77880;SDS011;67077;50.298;18.996;2023-09-19T01:34:54;18.00;;;12.60;;
77880;SDS011;67077;50.298;18.996;2023-09-19T01:37:31;18.30;;;13.40;;
77880;SDS011;67077;50.298;18.996;2023-09-19T01:40:03;18.80;;;13.90;;
77880;SDS011;67077;50.298;18.996;2023-09-19T01:42:58;17.30;;;12.70;;
77880;SDS011;67077;50.298;18.996;2023-09-19T01:56:23;25.60;;;16.20;;
77880;SDS011;67077;50.298;18.996;2023-09-19T01:59:04;25.60;;;16.10;;
77880;SDS011;67077;50.298;18.996;2023-09-19T02:01:36;29.30;;;22.80;;
77880;SDS011;67077;50.298;18.996;2023-09-19T02:04:05;21.10;;;16.60;;
77880;SDS011;67077;50.298;18.996;2023-09-19T02:06:33;17.50;;;13.90;;
77880;SDS011;67077;50.298;18.996;2023-09-19T02:09:04;16.90;;;14.10;;
77880;SDS011;67077;50.298;18.996;2023-09-19T02:11:31;22.80;;;14.50;;
77880;SDS011;67077;50.298;18.996;2023-09-19T02:13:59;19.80;;;14.10;;
77880;SDS011;67077;50.298;18.996;2023-09-19T02:16:27;19.00;;;13.80;;
77880;SDS011;67077;50.298;18.996;2023-09-19T02:18:56;17.70;;;13.40;;
77880;SDS011;67077;50.298;18.996;2023-09-19T02:21:24;18.90;;;13.70;;
77880;SDS011;67077;50.298;18.996;2023-09-19T02:23:52;18.00;;;13.80;;
77880;SDS011;67077;50.298;18.996;2023-09-19T02:26:20;20.00;;;13.20;;
77880;SDS011;67077;50.298;18.996;2023-09-19T02:28:48;19.60;;;13.90;;
77880;SDS011;67077;50.298;18.996;2023-09-19T02:31:16;17.10;;;14.10;;
77880;SDS011;67077;50.298;18.996;2023-09-19T02:33:44;17.30;;;14.00;;
77880;SDS011;67077;50.298;18.996;2023-09-19T02:36:13;22.80;;;13.60;;
77880;SDS011;67077;50.298;18.996;2023-09-19T02:38:44;19.40;;;13.70;;
77880;SDS011;67077;50.298;18.996;2023-09-19T02:41:12;21.40;;;13.70;;
77880;SDS011;67077;50.298;18.996;2023-09-19T02:43:40;18.70;;;13.20;;
77880;SDS011;67077;50.298;18.996;2023-09-19T02:46:08;21.10;;;14.00;;
77880;SDS011;67077;50.298;18.996;2023-09-19T02:48:36;19.50;;;13.50;;
77880;SDS011;67077;50.298;18.996;2023-09-19T02:51:04;18.10;;;13.30;;
77880;SDS011;67077;50.298;18.996;2023-09-19T02:53:32;17.10;;;12.60;;
77880;SDS011;67077;50.298;18.996;2023-09-19T02:56:00;17.90;;;13.20;;
77880;SDS011;67077;50.298;18.996;2023-09-19T02:58:28;17.70;;;12.80;;
77880;SDS011;67077;50.298;18.996;2023-09-19T03:00:57;18.10;;;13.40;;
77880;SDS011;67077;50.298;18.996;2023-09-19T03:03:26;18.80;;;13.00;;
77880;SDS011;67077;50.298;18.996;2023-09-19T03:05:55;17.80;;;13.30;;
77880;SDS011;67077;50.298;18.996;2023-09-19T03:08:23;17.00;;;13.00;;
77880;SDS011;67077;50.298;18.996;2023-09-19T03:10:50;19.10;;;13.80;;
77880;SDS011;67077;50.298;18.996;2023-09-19T03:13:18;22.20;;;13.80;;
77880;SDS011;67077;50.298;18.996;2023-09-19T03:15:47;17.50;;;13.70;;
77880;SDS011;67077;50.298;18.996;2023-09-19T03:18:17;19.10;;;13.20;;
77880;SDS011;67077;50.298;18.996;2023-09-19T03:20:52;20.20;;;13.90;;
77880;SDS011;67077;50.298;18.996;2023-09-19T03:23:22;22.30;;;14.60;;
77880;SDS011;67077;50.298;18.996;2023-09-19T03:25:50;20.90;;;13.70;;
77880;SDS011;67077;50.298;18.996;2023-09-19T03:28:20;18.40;;;14.40;;
77880;SDS011;67077;50.298;18.996;2023-09-19T03:31:04;22.30;;;14.40;;
77880;SDS011;67077;50.298;18.996;2023-09-19T03:33:33;19.00;;;13.70;;
77880;SDS011;67077;50.298;18.996;2023-09-19T03:36:02;17.80;;;14.00;;
77880;SDS011;67077;50.298;18.996;2023-09-19T03:38:33;19.10;;;14.20;;
77880;SDS011;67077;50.298;18.996;2023-09-19T03:41:02;21.00;;;14.50;;
77880;SDS011;67077;50.298;18.996;2023-09-19T03:43:31;19.50;;;13.90;;
77880;SDS011;67077;50.298;18.996;2023-09-19T03:46:02;19.70;;;14.80;;
77880;SDS011;67077;50.298;18.996;2023-09-19T03:48:32;20.90;;;14.70;;
77880;SDS011;67077;50.298;18.996;2023-09-19T03:51:00;19.20;;;14.50;;
77880;SDS011;67077;50.298;18.996;2023-09-19T03:53:29;21.70;;;15.50;;
77880;SDS011;67077;50.298;18.996;2023-09-19T03:55:57;21.20;;;15.00;;
77880;SDS011;67077;50.298;18.996;2023-09-19T03:58:25;23.40;;;16.20;;
77880;SDS011;67077;50.298;18.996;2023-09-19T04:00:56;21.80;;;15.90;;
77880;SDS011;67077;50.298;18.996;2023-09-19T04:03:25;19.40;;;14.80;;
77880;SDS011;67077;50.298;18.996;2023-09-19T04:06:02;22.90;;;16.30;;
77880;SDS011;67077;50.298;18.996;2023-09-19T04:08:30;23.10;;;17.40;;
77880;SDS011;67077;50.298;18.996;2023-09-19T04:10:58;25.80;;;18.60;;
77880;SDS011;67077;50.298;18.996;2023-09-19T04:13:26;23.50;;;17.50;;
77880;SDS011;67077;50.298;18.996;2023-09-19T04:15:53;26.70;;;18.70;;
77880;SDS011;67077;50.298;18.996;2023-09-19T04:18:21;26.70;;;19.70;;
77880;SDS011;67077;50.298;18.996;2023-09-19T04:20:51;28.10;;;20.40;;
77880;SDS011;67077;50.298;18.996;2023-09-19T04:23:19;28.90;;;20.10;;
77880;SDS011;67077;50.298;18.996;2023-09-19T04:25:50;31.40;;;22.10;;
77880;SDS011;67077;50.298;18.996;2023-09-19T04:28:17;30.60;;;20.60;;
77880;SDS011;67077;50.298;18.996;2023-09-19T04:30:45;31.20;;;22.10;;
77880;SDS011;67077;50.298;18.996;2023-09-19T04:33:13;32.30;;;23.00;;
77880;SDS011;67077;50.298;18.996;2023-09-19T04:35:42;32.30;;;23.10;;
77880;SDS011;67077;50.298;18.996;2023-09-19T04:38:10;36.30;;;23.20;;
77880;SDS011;67077;50.298;18.996;2023-09-19T04:40:39;34.90;;;24.50;;
77880;SDS011;67077;50.298;18.996;2023-09-19T04:43:07;34.60;;;24.30;;
77880;SDS011;67077;50.298;18.996;2023-09-19T04:45:35;33.50;;;23.70;;
77880;SDS011;67077;50.298;18.996;2023-09-19T04:48:03;35.60;;;24.90;;
77880;SDS011;67077;50.298;18.996;2023-09-19T04:50:31;34.50;;;24.00;;
77880;SDS011;67077;50.298;18.996;2023-09-19T04:52:59;33.00;;;24.10;;
77880;SDS011;67077;50.298;18.996;2023-09-19T04:55:27;34.90;;;24.50;;
77880;SDS011;67077;50.298;18.996;2023-09-19T04:57:57;39.30;;;25.20;;
77880;SDS011;67077;50.298;18.996;2023-09-19T05:00:26;38.20;;;24.40;;
77880;SDS011;67077;50.298;18.996;2023-09-19T05:02:57;36.90;;;25.50;;
77880;SDS011;67077;50.298;18.996;2023-09-19T05:05:25;34.60;;;24.40;;
77880;SDS011;67077;50.298;18.996;2023-09-19T05:07:53;35.00;;;24.00;;
77880;SDS011;67077;50.298;18.996;2023-09-19T05:10:21;33.70;;;24.10;;
77880;SDS011;67077;50.298;18.996;2023-09-19T05:12:52;32.20;;;23.50;;
77880;SDS011;67077;50.298;18.996;2023-09-19T05:15:21;37.40;;;23.80;;
77880;SDS011;67077;50.298;18.996;2023-09-19T05:17:49;32.20;;;23.40;;
77880;SDS011;67077;50.298;18.996;2023-09-19T05:20:19;35.00;;;24.00;;
77880;SDS011;67077;50.298;18.996;2023-09-19T05:23:03;38.40;;;23.90;;
77880;SDS011;67077;50.298;18.996;2023-09-19T05:25:35;33.20;;;22.80;;
77880;SDS011;67077;50.298;18.996;2023-09-19T05:28:05;32.40;;;23.10;;
77880;SDS011;67077;50.298;18.996;2023-09-19T05:30:37;34.90;;;22.20;;
77880;SDS011;67077;50.298;18.996;2023-09-19T05:33:06;30.80;;;22.60;;
77880;SDS011;67077;50.298;18.996;2023-09-19T05:35:35;40.60;;;22.60;;
77880;SDS011;67077;50.298;18.996;2023-09-19T05:38:09;37.10;;;24.40;;
77880;SDS011;67077;50.298;18.996;2023-09-19T05:40:37;43.00;;;28.80;;
77880;SDS011;67077;50.298;18.996;2023-09-19T05:43:06;38.70;;;25.30;;
77880;SDS011;67077;50.298;18.996;2023-09-19T05:45:34;40.60;;;26.80;;
77880;SDS011;67077;50.298;18.996;2023-09-19T05:48:08;40.40;;;28.50;;
77880;SDS011;67077;50.298;18.996;2023-09-19T05:50:37;33.60;;;23.50;;
77880;SDS011;67077;50.298;18.996;2023-09-19T05:53:05;35.10;;;25.40;;
77880;SDS011;67077;50.298;18.996;2023-09-19T05:55:34;41.00;;;25.90;;
77880;SDS011;67077;50.298;18.996;2023-09-19T05:58:03;34.30;;;22.10;;
77880;SDS011;67077;50.298;18.996;2023-09-19T06:00:31;32.50;;;20.60;;
77880;SDS011;67077;50.298;18.996;2023-09-19T06:02:59;34.30;;;25.50;;
77880;SDS011;67077;50.298;18.996;2023-09-19T06:05:28;43.80;;;29.70;;
77880;SDS011;67077;50.298;18.996;2023-09-19T06:07:59;42.90;;;30.70;;
77880;SDS011;67077;50.298;18.996;2023-09-19T06:10:27;45.00;;;31.00;;
77880;SDS011;67077;50.298;18.996;2023-09-19T06:12:56;42.60;;;28.50;;
77880;SDS011;67077;50.298;18.996;2023-09-19T06:15:25;34.00;;;23.80;;
77880;SDS011;67077;50.298;18.996;2023-09-19T06:17:54;31.40;;;21.50;;
77880;SDS011;67077;50.298;18.996;2023-09-19T06:20:24;37.80;;;26.50;;
77880;SDS011;67077;50.298;18.996;2023-09-19T06:22:53;37.50;;;24.70;;
77880;SDS011;67077;50.298;18.996;2023-09-19T06:25:21;30.00;;;22.50;;
77880;SDS011;67077;50.298;18.996;2023-09-19T06:27:50;37.30;;;26.30;;
77880;SDS011;67077;50.298;18.996;2023-09-19T06:30:21;36.00;;;26.20;;
77880;SDS011;67077;50.298;18.996;2023-09-19T06:32:57;39.40;;;28.40;;
77880;SDS011;67077;50.298;18.996;2023-09-19T06:35:26;35.90;;;23.30;;
77880;SDS011;67077;50.298;18.996;2023-09-19T06:37:57;41.50;;;27.40;;
77880;SDS011;67077;50.298;18.996;2023-09-19T06:40:25;35.10;;;22.40;;
77880;SDS011;67077;50.298;18.996;2023-09-19T06:42:53;29.40;;;19.80;;
77880;SDS011;67077;50.298;18.996;2023-09-19T06:45:23;42.00;;;26.20;;
77880;SDS011;67077;50.298;18.996;2023-09-19T06:47:54;33.50;;;21.90;;
77880;SDS011;67077;50.298;18.996;2023-09-19T06:50:25;33.00;;;22.40;;
77880;SDS011;67077;50.298;18.996;2023-09-19T06:52:55;40.30;;;26.80;;
77880;SDS011;67077;50.298;18.996;2023-09-19T06:55:27;38.70;;;25.80;;
77880;SDS011;67077;50.298;18.996;2023-09-19T06:57:59;36.40;;;24.90;;
77880;SDS011;67077;50.298;18.996;2023-09-19T07:00:27;34.20;;;23.50;;
77880;SDS011;67077;50.298;18.996;2023-09-19T07:03:02;37.70;;;23.40;;
77880;SDS011;67077;50.298;18.996;2023-09-19T07:05:35;20.90;;;14.10;;
77880;SDS011;67077;50.298;18.996;2023-09-19T07:08:05;26.90;;;14.40;;
77880;SDS011;67077;50.298;18.996;2023-09-19T07:10:34;22.50;;;14.00;;
77880;SDS011;67077;50.298;18.996;2023-09-19T07:13:03;16.60;;;12.30;;
77880;SDS011;67077;50.298;18.996;2023-09-19T07:15:32;21.30;;;15.30;;
77880;SDS011;67077;50.298;18.996;2023-09-19T07:18:03;20.30;;;13.50;;
77880;SDS011;67077;50.298;18.996;2023-09-19T07:20:32;17.30;;;10.10;;
77880;SDS011;67077;50.298;18.996;2023-09-19T07:23:02;22.80;;;14.80;;
77880;SDS011;67077;50.298;18.996;2023-09-19T07:25:30;16.20;;;10.90;;
77880;SDS011;67077;50.298;18.996;2023-09-19T07:27:58;14.30;;;9.00;;
77880;SDS011;67077;50.298;18.996;2023-09-19T07:30:29;13.20;;;7.20;;
77880;SDS011;67077;50.298;18.996;2023-09-19T07:32:57;13.10;;;7.50;;
77880;SDS011;67077;50.298;18.996;2023-09-19T07:35:25;12.60;;;8.30;;
77880;SDS011;67077;50.298;18.996;2023-09-19T07:37:54;11.70;;;9.10;;
77880;SDS011;67077;50.298;18.996;2023-09-19T07:40:24;22.30;;;15.70;;
77880;SDS011;67077;50.298;18.996;2023-09-19T07:42:55;17.30;;;10.30;;
77880;SDS011;67077;50.298;18.996;2023-09-19T07:45:23;11.60;;;7.20;;
77880;SDS011;67077;50.298;18.996;2023-09-19T07:47:52;11.90;;;5.90;;
77880;SDS011;67077;50.298;18.996;2023-09-19T07:50:20;11.20;;;5.40;;
77880;SDS011;67077;50.298;18.996;2023-09-19T07:52:49;10.10;;;4.80;;
77880;SDS011;67077;50.298;18.996;2023-09-19T07:55:20;8.70;;;4.90;;
77880;SDS011;67077;50.298;18.996;2023-09-19T07:57:52;14.50;;;5.70;;
77880;SDS011;67077;50.298;18.996;2023-09-19T08:00:20;10.50;;;5.10;;
77880;SDS011;67077;50.298;18.996;2023-09-19T08:02:48;9.80;;;5.30;;
77880;SDS011;67077;50.298;18.996;2023-09-19T08:05:16;10.40;;;5.30;;
77880;SDS011;67077;50.298;18.996;2023-09-19T08:07:45;11.40;;;5.00;;
77880;SDS011;67077;50.298;18.996;2023-09-19T08:10:16;11.70;;;4.30;;
77880;SDS011;67077;50.298;18.996;2023-09-19T08:12:50;8.60;;;4.00;;
77880;SDS011;67077;50.298;18.996;2023-09-19T08:15:23;9.50;;;3.90;;
77880;SDS011;67077;50.298;18.996;2023-09-19T08:17:51;8.50;;;3.70;;
77880;SDS011;67077;50.298;18.996;2023-09-19T08:20:20;8.80;;;3.70;;
77880;SDS011;67077;50.298;18.996;2023-09-19T08:25:16;9.70;;;4.10;;
77880;SDS011;67077;50.298;18.996;2023-09-19T08:27:48;8.00;;;3.80;;
77880;SDS011;67077;50.298;18.996;2023-09-19T08:30:17;8.40;;;3.90;;
77880;SDS011;67077;50.298;18.996;2023-09-19T08:32:47;5.30;;;3.70;;
77880;SDS011;67077;50.298;18.996;2023-09-19T08:35:15;7.00;;;4.10;;
77880;SDS011;67077;50.298;18.996;2023-09-19T08:37:44;8.70;;;4.50;;
77880;SDS011;67077;50.298;18.996;2023-09-19T08:40:13;6.90;;;4.30;;
77880;SDS011;67077;50.298;18.996;2023-09-19T08:42:48;6.80;;;4.20;;
77880;SDS011;67077;50.298;18.996;2023-09-19T08:45:21;8.70;;;4.70;;
77880;SDS011;67077;50.298;18.996;2023-09-19T08:51:00;8.00;;;4.70;;
77880;SDS011;67077;50.298;18.996;2023-09-19T08:53:47;8.50;;;4.60;;
77880;SDS011;67077;50.298;18.996;2023-09-19T08:56:19;8.50;;;5.00;;
77880;SDS011;67077;50.298;18.996;2023-09-19T09:01:29;8.50;;;5.90;;
77880;SDS011;67077;50.298;18.996;2023-09-19T09:04:00;12.60;;;6.20;;
77880;SDS011;67077;50.298;18.996;2023-09-19T09:06:29;13.30;;;6.70;;
77880;SDS011;67077;50.298;18.996;2023-09-19T09:09:00;13.20;;;6.90;;
77880;SDS011;67077;50.298;18.996;2023-09-19T09:11:29;12.40;;;6.90;;
77880;SDS011;67077;50.298;18.996;2023-09-19T09:14:00;14.00;;;6.80;;
77880;SDS011;67077;50.298;18.996;2023-09-19T09:16:29;10.80;;;6.70;;
77880;SDS011;67077;50.298;18.996;2023-09-19T09:18:57;10.10;;;6.60;;
77880;SDS011;67077;50.298;18.996;2023-09-19T09:21:26;9.70;;;6.40;;
77880;SDS011;67077;50.298;18.996;2023-09-19T09:23:54;9.30;;;6.40;;
77880;SDS011;67077;50.298;18.996;2023-09-19T09:26:56;11.80;;;6.80;;
77880;SDS011;67077;50.298;18.996;2023-09-19T09:29:17;10.20;;;6.50;;
77880;SDS011;67077;50.298;18.996;2023-09-19T09:34:50;10.10;;;7.10;;
77880;SDS011;67077;50.298;18.996;2023-09-19T09:37:25;11.40;;;7.60;;
77880;SDS011;67077;50.298;18.996;2023-09-19T09:40:06;12.90;;;7.60;;
77880;SDS011;67077;50.298;18.996;2023-09-19T09:42:47;16.10;;;8.40;;
77880;SDS011;67077;50.298;18.996;2023-09-19T09:45:23;10.70;;;6.80;;
77880;SDS011;67077;50.298;18.996;2023-09-19T09:48:01;10.60;;;6.80;;
77880;SDS011;67077;50.298;18.996;2023-09-19T09:50:50;11.00;;;6.70;;
77880;SDS011;67077;50.298;18.996;2023-09-19T09:53:24;11.90;;;6.50;;
77880;SDS011;67077;50.298;18.996;2023-09-19T09:56:06;10.70;;;6.70;;
77880;SDS011;67077;50.298;18.996;2023-09-19T09:58:49;11.10;;;6.40;;
77880;SDS011;67077;50.298;18.996;2023-09-19T10:01:46;10.10;;;6.60;;
77880;SDS011;67077;50.298;18.996;2023-09-19T10:04:27;8.40;;;5.80;;
77880;SDS011;67077;50.298;18.996;2023-09-19T10:09:51;9.30;;;6.20;;
77880;SDS011;67077;50.298;18.996;2023-09-19T10:12:19;11.10;;;6.50;;
77880;SDS011;67077;50.298;18.996;2023-09-19T10:14:50;11.60;;;6.30;;
77880;SDS011;67077;50.298;18.996;2023-09-19T10:17:22;9.80;;;5.80;;
77880;SDS011;67077;50.298;18.996;2023-09-19T10:19:55;13.30;;;6.20;;
77880;SDS011;67077;50.298;18.996;2023-09-19T10:22:44;9.70;;;6.00;;
77880;SDS011;67077;50.298;18.996;2023-09-19T10:25:52;13.70;;;6.00;;
77880;SDS011;67077;50.298;18.996;2023-09-19T10:31:40;12.00;;;6.10;;
77880;SDS011;67077;50.298;18.996;2023-09-19T10:34:15;11.10;;;5.90;;
77880;SDS011;67077;50.298;18.996;2023-09-19T10:36:59;12.70;;;5.90;;
77880;SDS011;67077;50.298;18.996;2023-09-19T10:39:33;9.30;;;5.50;;
77880;SDS011;67077;50.298;18.996;2023-09-19T10:42:06;8.50;;;6.00;;
77880;SDS011;67077;50.298;18.996;2023-09-19T10:44:39;10.60;;;5.90;;
77880;SDS011;67077;50.298;18.996;2023-09-19T10:53:00;11.00;;;5.10;;
77880;SDS011;67077;50.298;18.996;2023-09-19T10:55:39;12.00;;;5.00;;
77880;SDS011;67077;50.298;18.996;2023-09-19T10:58:09;12.20;;;4.90;;
77880;SDS011;67077;50.298;18.996;2023-09-19T11:00:53;9.50;;;4.40;;
77880;SDS011;67077;50.298;18.996;2023-09-19T11:03:41;8.20;;;4.00;;
77880;SDS011;67077;50.298;18.996;2023-09-19T11:06:30;6.40;;;3.80;;
77880;SDS011;67077;50.298;18.996;2023-09-19T11:17:52;9.60;;;5.30;;
77880;SDS011;67077;50.298;18.996;2023-09-19T11:20:24;14.10;;;6.10;;
77880;SDS011;67077;50.298;18.996;2023-09-19T11:28:28;11.10;;;5.30;;
77880;SDS011;67077;50.298;18.996;2023-09-19T11:30:59;7.60;;;4.80;;
77880;SDS011;67077;50.298;18.996;2023-09-19T11:40:05;8.70;;;5.40;;
77880;SDS011;67077;50.298;18.996;2023-09-19T11:42:44;11.30;;;5.70;;
77880;SDS011;67077;50.298;18.996;2023-09-19T11:48:09;8.80;;;5.60;;
77880;SDS011;67077;50.298;18.996;2023-09-19T11:50:44;8.10;;;5.30;;
77880;SDS011;67077;50.298;18.996;2023-09-19T11:53:13;9.80;;;5.90;;
77880;SDS011;67077;50.298;18.996;2023-09-19T11:58:16;10.40;;;6.50;;
77880;SDS011;67077;50.298;18.996;2023-09-19T12:00:46;9.80;;;6.50;;
77880;SDS011;67077;50.298;18.996;2023-09-19T12:03:25;12.60;;;6.80;;
77880;SDS011;67077;50.298;18.996;2023-09-19T12:05:58;11.00;;;6.60;;
77880;SDS011;67077;50.298;18.996;2023-09-19T12:08:27;10.60;;;6.10;;
77880;SDS011;67077;50.298;18.996;2023-09-19T12:10:55;10.60;;;6.10;;
77880;SDS011;67077;50.298;18.996;2023-09-19T12:13:24;10.70;;;6.10;;
77880;SDS011;67077;50.298;18.996;2023-09-19T12:15:55;11.10;;;6.40;;
77880;SDS011;67077;50.298;18.996;2023-09-19T12:18:26;10.80;;;6.80;;
77880;SDS011;67077;50.298;18.996;2023-09-19T12:20:58;12.10;;;7.20;;
77880;SDS011;67077;50.298;18.996;2023-09-19T12:23:28;9.70;;;6.70;;
77880;SDS011;67077;50.298;18.996;2023-09-19T12:26:01;10.50;;;6.90;;
77880;SDS011;67077;50.298;18.996;2023-09-19T12:28:43;11.00;;;6.60;;
77880;SDS011;67077;50.298;18.996;2023-09-19T12:31:11;11.90;;;6.80;;
77880;SDS011;67077;50.298;18.996;2023-09-19T12:33:42;14.10;;;7.40;;
77880;SDS011;67077;50.298;18.996;2023-09-19T12:36:26;11.20;;;7.70;;
77880;SDS011;67077;50.298;18.996;2023-09-19T12:39:06;10.70;;;6.20;;
77880;SDS011;67077;50.298;18.996;2023-09-19T12:41:38;11.00;;;7.10;;
77880;SDS011;67077;50.298;18.996;2023-09-19T12:44:10;10.00;;;6.90;;
77880;SDS011;67077;50.298;18.996;2023-09-19T12:46:40;15.50;;;7.20;;
77880;SDS011;67077;50.298;18.996;2023-09-19T12:49:16;9.80;;;6.60;;
77880;SDS011;67077;50.298;18.996;2023-09-19T12:51:48;9.00;;;5.30;;
77880;SDS011;67077;50.298;18.996;2023-09-19T12:54:22;7.30;;;5.50;;
77880;SDS011;67077;50.298;18.996;2023-09-19T12:56:52;9.00;;;6.00;;
77880;SDS011;67077;50.298;18.996;2023-09-19T12:59:28;8.10;;;5.80;;
77880;SDS011;67077;50.298;18.996;2023-09-19T13:02:04;9.10;;;5.60;;
77880;SDS011;67077;50.298;18.996;2023-09-19T13:04:41;10.90;;;5.30;;
77880;SDS011;67077;50.298;18.996;2023-09-19T13:10:10;7.90;;;5.10;;
77880;SDS011;67077;50.298;18.996;2023-09-19T13:12:38;6.70;;;4.60;;
77880;SDS011;67077;50.298;18.996;2023-09-19T13:15:08;9.70;;;5.20;;
77880;SDS011;67077;50.298;18.996;2023-09-19T13:17:44;9.90;;;5.20;;
77880;SDS011;67077;50.298;18.996;2023-09-19T13:20:23;7.10;;;5.00;;
77880;SDS011;67077;50.298;18.996;2023-09-19T13:22:57;7.40;;;4.50;;
77880;SDS011;67077;50.298;18.996;2023-09-19T13:25:39;6.50;;;4.00;;
77880;SDS011;67077;50.298;18.996;2023-09-19T13:28:17;6.50;;;4.10;;
77880;SDS011;67077;50.298;18.996;2023-09-19T13:30:49;8.00;;;4.20;;
77880;SDS011;67077;50.298;18.996;2023-09-19T13:33:19;6.30;;;4.00;;
77880;SDS011;67077;50.298;18.996;2023-09-19T13:35:49;8.00;;;3.70;;
77880;SDS011;67077;50.298;18.996;2023-09-19T13:38:17;7.30;;;3.60;;
77880;SDS011;67077;50.298;18.996;2023-09-19T13:40:46;6.50;;;3.80;;
77880;SDS011;67077;50.298;18.996;2023-09-19T13:43:17;5.00;;;3.60;;
77880;SDS011;67077;50.298;18.996;2023-09-19T13:45:52;7.10;;;3.60;;
77880;SDS011;67077;50.298;18.996;2023-09-19T13:48:27;7.70;;;3.80;;
77880;SDS011;67077;50.298;18.996;2023-09-19T13:50:58;4.50;;;3.30;;
77880;SDS011;67077;50.298;18.996;2023-09-19T13:53:26;8.70;;;3.60;;
77880;SDS011;67077;50.298;18.996;2023-09-19T13:55:54;6.40;;;3.60;;
77880;SDS011;67077;50.298;18.996;2023-09-19T13:58:22;4.40;;;3.10;;
77880;SDS011;67077;50.298;18.996;2023-09-19T14:00:56;6.30;;;3.40;;
77880;SDS011;67077;50.298;18.996;2023-09-19T14:03:25;5.30;;;3.50;;
77880;SDS011;67077;50.298;18.996;2023-09-19T14:09:25;7.00;;;3.00;;
77880;SDS011;67077;50.298;18.996;2023-09-19T14:11:55;5.90;;;3.00;;
77880;SDS011;67077;50.298;18.996;2023-09-19T14:14:39;6.10;;;3.30;;
77880;SDS011;67077;50.298;18.996;2023-09-19T14:17:08;7.70;;;3.30;;
77880;SDS011;67077;50.298;18.996;2023-09-19T14:19:36;5.60;;;3.60;;
77880;SDS011;67077;50.298;18.996;2023-09-19T14:22:07;5.60;;;3.40;;
77880;SDS011;67077;50.298;18.996;2023-09-19T14:24:36;6.10;;;3.40;;
77880;SDS011;67077;50.298;18.996;2023-09-19T14:27:04;8.70;;;4.10;;
77880;SDS011;67077;50.298;18.996;2023-09-19T14:29:33;9.10;;;4.70;;
77880;SDS011;67077;50.298;18.996;2023-09-19T14:32:02;6.30;;;3.70;;
77880;SDS011;67077;50.298;18.996;2023-09-19T14:34:30;7.90;;;4.30;;
77880;SDS011;67077;50.298;18.996;2023-09-19T14:36:59;5.90;;;4.00;;
77880;SDS011;67077;50.298;18.996;2023-09-19T14:39:27;8.10;;;4.00;;
77880;SDS011;67077;50.298;18.996;2023-09-19T14:41:56;6.80;;;4.10;;
77880;SDS011;67077;50.298;18.996;2023-09-19T14:44:23;5.20;;;3.50;;
77880;SDS011;67077;50.298;18.996;2023-09-19T14:46:51;7.30;;;3.90;;
77880;SDS011;67077;50.298;18.996;2023-09-19T14:49:19;8.60;;;4.20;;
77880;SDS011;67077;50.298;18.996;2023-09-19T14:51:47;6.80;;;3.80;;
77880;SDS011;67077;50.298;18.996;2023-09-19T14:54:16;7.80;;;3.80;;
77880;SDS011;67077;50.298;18.996;2023-09-19T14:56:44;5.80;;;4.10;;
77880;SDS011;67077;50.298;18.996;2023-09-19T14:59:12;7.00;;;3.50;;
77880;SDS011;67077;50.298;18.996;2023-09-19T15:01:40;4.10;;;2.70;;
77880;SDS011;67077;50.298;18.996;2023-09-19T15:04:08;4.50;;;2.30;;
77880;SDS011;67077;50.298;18.996;2023-09-19T15:06:36;10.80;;;3.10;;
77880;SDS011;67077;50.298;18.996;2023-09-19T15:09:04;3.90;;;2.30;;
77880;SDS011;67077;50.298;18.996;2023-09-19T15:11:35;10.50;;;2.90;;
77880;SDS011;67077;50.298;18.996;2023-09-19T15:14:03;7.30;;;3.10;;
77880;SDS011;67077;50.298;18.996;2023-09-19T15:16:32;6.10;;;2.60;;
77880;SDS011;67077;50.298;18.996;2023-09-19T15:19:00;3.40;;;2.00;;
77880;SDS011;67077;50.298;18.996;2023-09-19T15:21:28;3.40;;;2.20;;
77880;SDS011;67077;50.298;18.996;2023-09-19T15:23:57;5.90;;;2.10;;
77880;SDS011;67077;50.298;18.996;2023-09-19T15:26:25;3.60;;;2.20;;
77880;SDS011;67077;50.298;18.996;2023-09-19T15:28:53;3.40;;;2.00;;
77880;SDS011;67077;50.298;18.996;2023-09-19T15:31:22;4.00;;;1.90;;
77880;SDS011;67077;50.298;18.996;2023-09-19T15:33:50;3.70;;;1.80;;
77880;SDS011;67077;50.298;18.996;2023-09-19T15:36:18;4.10;;;2.20;;
77880;SDS011;67077;50.298;18.996;2023-09-19T15:39:05;3.20;;;1.60;;
77880;SDS011;67077;50.298;18.996;2023-09-19T15:41:36;3.00;;;1.90;;
77880;SDS011;67077;50.298;18.996;2023-09-19T15:44:10;3.10;;;2.00;;
77880;SDS011;67077;50.298;18.996;2023-09-19T15:46:40;7.10;;;2.50;;
77880;SDS011;67077;50.298;18.996;2023-09-19T15:49:08;4.90;;;2.00;;
77880;SDS011;67077;50.298;18.996;2023-09-19T15:51:37;5.80;;;2.60;;
77880;SDS011;67077;50.298;18.996;2023-09-19T15:54:10;6.20;;;2.60;;
77880;SDS011;67077;50.298;18.996;2023-09-19T15:56:43;5.00;;;2.00;;
77880;SDS011;67077;50.298;18.996;2023-09-19T15:59:12;5.70;;;2.30;;